createdAt,value
2023-04-27T00:02:08.184Z,4.54
2023-04-27T00:04:35.983Z,4.54
2023-04-27T00:07:03.831Z,4.46
2023-04-27T00:09:31.378Z,4.34
2023-04-27T00:11:58.901Z,4.39
2023-04-27T00:14:28.399Z,4.34
2023-04-27T00:16:57.255Z,4.22
2023-04-27T00:19:24.746Z,4.13
2023-04-27T00:21:52.324Z,4.25
2023-04-27T00:24:19.792Z,4.26
2023-04-27T00:26:47.262Z,4.28
2023-04-27T00:29:14.951Z,4.12
2023-04-27T00:31:42.767Z,4.10
2023-04-27T00:34:11.674Z,4.27
2023-04-27T00:36:39.882Z,4.22
2023-04-27T00:39:07.385Z,4.18
2023-04-27T00:41:38.103Z,3.93
2023-04-27T00:44:06.063Z,3.95
2023-04-27T00:46:34.314Z,4.08
2023-04-27T00:49:02.049Z,4.03
2023-04-27T00:51:32.118Z,3.98
2023-04-27T00:54:01.036Z,4.10
2023-04-27T00:56:28.536Z,4.04
2023-04-27T00:58:56.270Z,4.04
2023-04-27T01:01:24.510Z,3.99
2023-04-27T01:03:52.221Z,3.82
2023-04-27T01:06:19.942Z,3.86
2023-04-27T01:08:48.865Z,3.92
2023-04-27T01:11:16.424Z,3.88
2023-04-27T01:13:43.923Z,3.87
2023-04-27T01:16:11.508Z,3.88
2023-04-27T01:18:40.712Z,3.90
2023-04-27T01:21:08.356Z,4.05
2023-04-27T01:23:37.248Z,4.16
2023-04-27T01:26:04.796Z,4.03
2023-04-27T01:28:32.351Z,4.03
2023-04-27T01:31:01.304Z,4.07
2023-04-27T01:33:28.809Z,4.03
2023-04-27T01:35:56.301Z,4.19
2023-04-27T01:38:24.269Z,4.20
2023-04-27T01:40:55.154Z,4.30
2023-04-27T01:43:22.670Z,4.31
2023-04-27T01:45:50.179Z,4.04
2023-04-27T01:48:17.674Z,3.89
2023-04-27T01:50:45.258Z,3.99
2023-04-27T01:53:12.840Z,4.12
2023-04-27T01:55:40.510Z,4.12
2023-04-27T01:58:09.308Z,4.15
2023-04-27T02:00:36.861Z,4.04
2023-04-27T02:03:04.541Z,4.07
2023-04-27T02:05:32.137Z,4.10
2023-04-27T02:07:59.687Z,4.03
2023-04-27T02:10:27.231Z,4.26
2023-04-27T02:12:57.468Z,4.10
2023-04-27T02:15:26.541Z,4.06
2023-04-27T02:17:54.632Z,4.01
2023-04-27T02:20:22.931Z,3.86
2023-04-27T02:22:50.477Z,3.80
2023-04-27T02:25:18.316Z,3.85
2023-04-27T02:27:45.903Z,3.65
2023-04-27T02:30:15.331Z,3.56
2023-04-27T02:32:44.900Z,3.70
2023-04-27T02:35:12.483Z,3.59
2023-04-27T02:37:39.973Z,3.72
2023-04-27T02:40:09.544Z,3.65
2023-04-27T02:42:38.719Z,3.76
2023-04-27T02:45:08.117Z,3.80
2023-04-27T02:47:37.410Z,3.89
2023-04-27T02:50:07.485Z,3.88
2023-04-27T02:52:36.289Z,3.79
2023-04-27T02:55:03.985Z,3.85
2023-04-27T02:57:31.763Z,3.99
2023-04-27T03:00:00.787Z,3.98
2023-04-27T03:02:28.398Z,3.93
2023-04-27T03:04:56.184Z,3.91
2023-04-27T03:07:26.182Z,3.96
2023-04-27T03:09:53.735Z,3.99
2023-04-27T03:12:22.675Z,3.94
2023-04-27T03:14:50.157Z,3.86
2023-04-27T03:17:18.691Z,3.97
2023-04-27T03:19:48.992Z,4.00
2023-04-27T03:22:16.461Z,3.89
2023-04-27T03:24:45.330Z,3.85
2023-04-27T03:27:12.905Z,3.85
2023-04-27T03:29:40.398Z,3.91
2023-04-27T03:32:08.046Z,3.93
2023-04-27T03:34:35.636Z,3.81
2023-04-27T03:37:03.140Z,3.92
2023-04-27T03:39:30.777Z,4.02
2023-04-27T03:41:59.584Z,3.98
2023-04-27T03:44:27.170Z,4.02
2023-04-27T03:46:54.874Z,4.04
2023-04-27T03:49:22.982Z,4.07
2023-04-27T03:51:51.026Z,4.03
2023-04-27T03:54:18.573Z,4.06
2023-04-27T03:56:46.784Z,4.12
2023-04-27T03:59:16.153Z,4.14
2023-04-27T04:01:49.812Z,4.23
2023-04-27T04:04:17.447Z,4.09
2023-04-27T04:06:45.200Z,4.05
2023-04-27T04:09:13.623Z,4.06
2023-04-27T04:11:41.493Z,4.12
2023-04-27T04:14:12.280Z,4.06
2023-04-27T04:16:42.472Z,4.16
2023-04-27T04:19:10.024Z,4.23
2023-04-27T04:21:37.940Z,4.18
2023-04-27T04:24:05.906Z,4.26
2023-04-27T04:26:34.202Z,4.23
2023-04-27T04:29:02.006Z,4.15
2023-04-27T04:31:29.804Z,4.14
2023-04-27T04:33:58.725Z,4.13
2023-04-27T04:36:26.580Z,4.19
2023-04-27T04:38:57.215Z,4.05
2023-04-27T04:41:26.348Z,4.03
2023-04-27T04:43:54.493Z,4.06
2023-04-27T04:46:22.352Z,4.02
2023-04-27T04:48:52.724Z,4.14
2023-04-27T04:51:23.635Z,4.36
2023-04-27T04:53:51.121Z,4.19
2023-04-27T04:56:18.665Z,4.22
2023-04-27T04:58:46.313Z,4.19
2023-04-27T05:01:13.816Z,4.25
2023-04-27T05:03:42.684Z,4.22
2023-04-27T05:06:10.286Z,4.31
2023-04-27T05:08:39.185Z,4.39
2023-04-27T05:11:06.666Z,4.27
2023-04-27T05:13:35.533Z,4.27
2023-04-27T05:16:05.107Z,4.29
2023-04-27T05:18:32.693Z,4.40
2023-04-27T05:21:00.411Z,4.52
2023-04-27T05:23:27.980Z,4.62
2023-04-27T05:25:56.859Z,4.63
2023-04-27T05:28:24.338Z,4.64
2023-04-27T05:30:51.851Z,4.53
2023-04-27T05:33:19.366Z,4.51
2023-04-27T05:35:46.860Z,4.57
2023-04-27T05:38:17.412Z,4.51
2023-04-27T05:40:44.987Z,4.58
2023-04-27T05:43:13.780Z,4.64
2023-04-27T05:45:41.813Z,4.59
2023-04-27T05:48:09.348Z,4.55
2023-04-27T05:50:36.849Z,4.57
2023-04-27T05:53:05.631Z,4.46
2023-04-27T05:55:33.092Z,4.54
2023-04-27T05:58:08.536Z,4.66
2023-04-27T06:00:38.327Z,4.72
2023-04-27T06:03:07.234Z,4.83
2023-04-27T06:05:35.307Z,4.82
2023-04-27T06:08:03.084Z,4.87
2023-04-27T06:10:30.714Z,4.91
2023-04-27T06:12:58.223Z,5.04
2023-04-27T06:15:25.931Z,5.11
2023-04-27T06:17:54.827Z,5.30
2023-04-27T06:20:22.919Z,5.43
2023-04-27T06:22:50.581Z,5.53
2023-04-27T06:25:18.094Z,5.65
2023-04-27T06:27:45.667Z,5.78
2023-04-27T06:30:13.917Z,5.78
2023-04-27T06:32:41.464Z,5.87
2023-04-27T06:35:11.044Z,5.78
2023-04-27T06:37:39.061Z,6.01
2023-04-27T06:40:08.041Z,6.13
2023-04-27T06:42:35.738Z,6.23
2023-04-27T06:45:04.554Z,6.37
2023-04-27T06:47:32.071Z,6.58
2023-04-27T06:49:59.850Z,6.73
2023-04-27T06:52:28.780Z,6.72
2023-04-27T06:54:56.265Z,6.84
2023-04-27T06:57:23.746Z,7.03
2023-04-27T06:59:52.305Z,7.13
2023-04-27T07:02:19.924Z,7.17
2023-04-27T07:04:47.847Z,7.21
2023-04-27T07:07:15.398Z,7.41
2023-04-27T07:09:44.405Z,7.57
2023-04-27T07:12:11.948Z,7.65
2023-04-27T07:14:39.445Z,7.79
2023-04-27T07:17:06.984Z,7.92
2023-04-27T07:19:34.459Z,8.17
2023-04-27T07:22:01.943Z,8.30
2023-04-27T07:24:29.403Z,8.41
2023-04-27T07:26:59.393Z,8.65
2023-04-27T07:29:28.302Z,8.74
2023-04-27T07:31:57.353Z,8.84
2023-04-27T07:34:24.925Z,8.99
2023-04-27T07:36:54.195Z,9.15
2023-04-27T07:39:22.310Z,9.24
2023-04-27T07:41:49.897Z,9.39
2023-04-27T07:44:19.429Z,9.31
2023-04-27T07:46:48.927Z,9.05
2023-04-27T07:49:16.741Z,9.09
2023-04-27T07:51:44.372Z,9.31
2023-04-27T07:54:11.954Z,9.64
2023-04-27T07:56:41.592Z,9.78
2023-04-27T07:59:09.108Z,9.89
2023-04-27T08:01:37.982Z,9.97
2023-04-27T08:04:08.786Z,9.99
2023-04-27T08:06:37.036Z,9.79
2023-04-27T08:09:05.198Z,9.87
2023-04-27T08:11:32.902Z,9.83
2023-04-27T08:14:01.451Z,9.97
2023-04-27T08:16:28.992Z,10.11
2023-04-27T08:18:59.269Z,10.26
2023-04-27T08:21:28.532Z,10.24
2023-04-27T08:23:56.525Z,10.25
2023-04-27T08:26:26.276Z,10.26
2023-04-27T08:28:53.980Z,10.24
2023-04-27T08:31:22.117Z,10.15
2023-04-27T08:33:49.721Z,10.45
2023-04-27T08:36:18.559Z,10.51
2023-04-27T08:38:46.488Z,10.53
2023-04-27T08:41:21.962Z,10.46
2023-04-27T08:43:50.814Z,10.94
2023-04-27T08:46:21.938Z,11.19
2023-04-27T08:48:51.115Z,11.00
2023-04-27T08:51:20.864Z,10.95
2023-04-27T08:53:50.371Z,10.72
2023-04-27T08:56:18.123Z,10.83
2023-04-27T08:58:45.963Z,10.91
2023-04-27T09:01:13.537Z,11.07
2023-04-27T09:03:41.236Z,11.09
2023-04-27T09:06:09.600Z,10.96
2023-04-27T09:08:45.816Z,11.11
2023-04-27T09:11:13.464Z,11.04
2023-04-27T09:13:44.995Z,11.15
2023-04-27T09:16:13.963Z,11.37
2023-04-27T09:18:43.621Z,11.35
2023-04-27T09:21:11.248Z,11.63
2023-04-27T09:23:40.639Z,11.60
2023-04-27T09:26:09.513Z,11.49
2023-04-27T09:28:39.670Z,11.46
2023-04-27T09:31:09.135Z,11.56
2023-04-27T09:33:37.049Z,11.77
2023-04-27T09:36:06.535Z,12.17
2023-04-27T09:38:34.836Z,12.38
2023-04-27T09:41:02.822Z,12.68
2023-04-27T09:43:31.804Z,13.03
2023-04-27T09:45:59.499Z,12.94
2023-04-27T09:48:27.553Z,13.01
2023-04-27T09:50:55.120Z,12.71
2023-04-27T09:53:27.623Z,12.41
2023-04-27T09:56:04.186Z,12.86
2023-04-27T09:58:46.298Z,13.16
2023-04-27T10:01:19.645Z,13.54
2023-04-27T10:03:56.686Z,13.70
2023-04-27T10:06:58.125Z,14.01
2023-04-27T10:09:26.473Z,14.30
2023-04-27T10:11:55.256Z,14.21
2023-04-27T10:14:26.046Z,14.10
2023-04-27T10:16:55.641Z,13.78
2023-04-27T10:19:24.386Z,13.91
2023-04-27T10:21:57.914Z,14.31
2023-04-27T10:24:37.926Z,14.40
2023-04-27T10:27:06.909Z,14.61
2023-04-27T10:29:40.241Z,14.56
2023-04-27T10:32:08.934Z,14.60
2023-04-27T10:34:37.396Z,14.17
2023-04-27T10:37:09.186Z,14.24
2023-04-27T10:39:47.550Z,14.29
2023-04-27T10:42:16.052Z,14.55
2023-04-27T10:44:55.869Z,13.99
2023-04-27T10:47:24.346Z,14.09
2023-04-27T10:49:53.679Z,14.49
2023-04-27T10:52:21.134Z,14.41
2023-04-27T10:54:48.800Z,14.68
2023-04-27T10:57:16.424Z,14.87
2023-04-27T10:59:52.838Z,14.85
2023-04-27T11:02:27.483Z,14.85
2023-04-27T11:04:55.410Z,14.79
2023-04-27T11:07:27.683Z,14.61
2023-04-27T11:09:55.358Z,14.65
2023-04-27T11:12:24.087Z,14.71
2023-04-27T11:14:58.400Z,14.91
2023-04-27T11:17:30.069Z,15.17
2023-04-27T11:19:57.630Z,15.33
2023-04-27T11:22:25.534Z,15.41
2023-04-27T11:24:53.668Z,15.19
2023-04-27T11:27:22.290Z,15.11
2023-04-27T11:29:49.941Z,14.80
2023-04-27T11:32:22.565Z,14.65
2023-04-27T11:34:50.787Z,14.36
2023-04-27T11:37:23.745Z,14.01
2023-04-27T11:39:51.687Z,13.62
2023-04-27T11:42:21.891Z,14.17
2023-04-27T11:44:56.616Z,14.47
2023-04-27T11:47:27.698Z,15.14
2023-04-27T11:49:56.542Z,15.81
2023-04-27T11:52:24.380Z,15.68
2023-04-27T11:54:53.440Z,15.30
2023-04-27T11:57:26.117Z,14.57
2023-04-27T11:59:53.781Z,14.98
2023-04-27T12:02:22.037Z,15.38
2023-04-27T12:04:51.603Z,15.73
2023-04-27T12:07:19.718Z,15.72
2023-04-27T12:09:47.600Z,15.47
2023-04-27T12:12:18.174Z,15.47
2023-04-27T12:14:45.872Z,15.55
2023-04-27T12:17:13.666Z,15.57
2023-04-27T12:19:41.229Z,15.67
2023-04-27T12:22:10.158Z,15.27
2023-04-27T12:24:38.042Z,15.39
2023-04-27T12:27:05.622Z,15.02
2023-04-27T12:29:33.259Z,15.05
2023-04-27T12:32:01.073Z,15.66
2023-04-27T12:34:29.218Z,15.35
2023-04-27T12:36:56.916Z,15.03
2023-04-27T12:39:25.870Z,15.22
2023-04-27T12:41:54.100Z,15.47
2023-04-27T12:44:22.647Z,15.43
2023-04-27T12:46:50.629Z,15.47
2023-04-27T12:49:18.642Z,15.45
2023-04-27T12:51:47.796Z,15.29
2023-04-27T12:54:15.700Z,15.64
2023-04-27T12:56:45.008Z,15.66
2023-04-27T12:59:12.612Z,15.56
2023-04-27T13:01:40.288Z,15.65
2023-04-27T13:04:09.168Z,15.55
2023-04-27T13:06:36.911Z,15.51
2023-04-27T13:09:05.389Z,15.54
2023-04-27T13:11:32.984Z,15.65
2023-04-27T13:14:01.993Z,15.67
2023-04-27T13:16:29.689Z,15.57
2023-04-27T13:18:57.258Z,15.15
2023-04-27T13:21:24.897Z,15.03
2023-04-27T13:23:54.821Z,15.12
2023-04-27T13:26:22.473Z,15.17
2023-04-27T13:28:50.998Z,15.18
2023-04-27T13:31:19.980Z,15.23
2023-04-27T13:33:47.485Z,15.17
2023-04-27T13:36:15.106Z,15.11
2023-04-27T13:38:42.726Z,15.36
2023-04-27T13:41:10.309Z,15.65
2023-04-27T13:43:37.915Z,15.57
2023-04-27T13:46:05.616Z,15.85
2023-04-27T13:48:34.453Z,15.77
2023-04-27T13:51:02.256Z,15.63
2023-04-27T13:53:29.847Z,15.72
2023-04-27T13:55:58.180Z,15.42
2023-04-27T13:58:26.401Z,15.53
2023-04-27T14:00:54.613Z,15.64
2023-04-27T14:03:22.801Z,15.48
2023-04-27T14:05:52.087Z,15.44
2023-04-27T14:08:19.760Z,15.49
2023-04-27T14:10:47.586Z,15.34
2023-04-27T14:13:15.091Z,15.24
2023-04-27T14:15:42.639Z,15.21
2023-04-27T14:18:10.710Z,15.27
2023-04-27T14:20:40.217Z,15.21
2023-04-27T14:23:09.744Z,15.16
2023-04-27T14:25:38.645Z,15.05
2023-04-27T14:28:07.039Z,14.89
2023-04-27T14:30:35.364Z,14.90
2023-04-27T14:33:03.278Z,14.66
2023-04-27T14:35:31.103Z,14.41
2023-04-27T14:38:02.238Z,14.53
2023-04-27T14:40:31.544Z,13.88
2023-04-27T14:42:59.682Z,14.09
2023-04-27T14:45:33.442Z,14.12
2023-04-27T14:48:04.676Z,13.92
2023-04-27T14:50:32.677Z,14.03
2023-04-27T14:53:00.151Z,14.12
2023-04-27T14:55:27.644Z,14.12
2023-04-27T14:57:56.466Z,14.30
2023-04-27T15:00:24.023Z,14.44
2023-04-27T15:02:51.676Z,14.43
2023-04-27T15:05:19.233Z,14.51
2023-04-27T15:07:46.966Z,14.58
2023-04-27T15:10:14.439Z,14.23
2023-04-27T15:12:41.911Z,14.50
2023-04-27T15:15:12.776Z,14.55
2023-04-27T15:17:40.386Z,14.52
2023-04-27T15:20:08.957Z,14.44
2023-04-27T15:22:36.462Z,14.44
2023-04-27T15:25:04.199Z,14.40
2023-04-27T15:27:32.666Z,14.36
2023-04-27T15:30:03.792Z,14.37
2023-04-27T15:32:33.239Z,14.37
2023-04-27T15:35:01.257Z,14.32
2023-04-27T15:37:29.727Z,14.23
2023-04-27T15:39:57.648Z,14.20
2023-04-27T15:42:25.330Z,14.04
2023-04-27T15:44:52.823Z,14.03
2023-04-27T15:47:20.323Z,14.06
2023-04-27T15:49:57.011Z,14.09
2023-04-27T15:52:27.045Z,14.03
2023-04-27T15:54:55.887Z,14.00
2023-04-27T15:57:23.357Z,13.94
2023-04-27T15:59:50.856Z,13.88
2023-04-27T16:02:18.752Z,13.85
2023-04-27T16:04:46.307Z,13.84
2023-04-27T16:07:15.147Z,13.78
2023-04-27T16:09:43.370Z,13.81
2023-04-27T16:12:10.885Z,13.82
2023-04-27T16:14:38.874Z,13.62
2023-04-27T16:17:06.708Z,13.74
2023-04-27T16:19:34.176Z,13.89
2023-04-27T16:22:04.034Z,13.98
2023-04-27T16:24:32.903Z,13.87
2023-04-27T16:27:00.428Z,13.92
2023-04-27T16:29:27.923Z,13.83
2023-04-27T16:31:55.444Z,13.85
2023-04-27T16:34:22.963Z,13.88
2023-04-27T16:36:50.797Z,13.88
2023-04-27T16:39:19.192Z,13.86
2023-04-27T16:41:48.552Z,13.88
2023-04-27T16:44:16.573Z,13.85
2023-04-27T16:46:44.127Z,13.87
2023-04-27T16:49:11.797Z,13.88
2023-04-27T16:51:39.386Z,13.79
2023-04-27T16:54:06.917Z,13.90
2023-04-27T16:56:36.079Z,13.62
2023-04-27T16:59:05.198Z,13.65
2023-04-27T17:01:32.989Z,13.60
2023-04-27T17:04:02.301Z,13.45
2023-04-27T17:06:30.051Z,13.41
2023-04-27T17:08:58.233Z,13.36
2023-04-27T17:11:26.376Z,13.16
2023-04-27T17:13:53.920Z,13.07
2023-04-27T17:16:23.369Z,12.94
2023-04-27T17:18:51.055Z,12.83
2023-04-27T17:21:19.337Z,12.72
2023-04-27T17:23:47.476Z,12.72
2023-04-27T17:26:15.965Z,12.67
2023-04-27T17:28:43.477Z,12.65
2023-04-27T17:31:11.031Z,12.47
2023-04-27T17:33:40.102Z,12.45
2023-04-27T17:36:07.955Z,12.37
2023-04-27T17:38:35.513Z,12.29
2023-04-27T17:41:03.001Z,12.28
2023-04-27T17:43:30.778Z,12.19
2023-04-27T17:45:58.262Z,12.07
2023-04-27T17:48:25.778Z,12.09
2023-04-27T17:50:54.647Z,12.07
2023-04-27T17:53:22.179Z,12.05
2023-04-27T17:55:49.688Z,12.09
2023-04-27T17:58:17.192Z,12.00
2023-04-27T18:00:45.211Z,11.97
2023-04-27T18:03:13.242Z,11.87
2023-04-27T18:05:41.020Z,11.72
2023-04-27T18:08:09.967Z,11.62
2023-04-27T18:10:37.445Z,11.61
2023-04-27T18:13:04.939Z,11.58
2023-04-27T18:15:32.474Z,11.48
2023-04-27T18:18:00.107Z,11.46
2023-04-27T18:20:28.067Z,11.45
2023-04-27T18:22:55.694Z,11.47
2023-04-27T18:25:24.625Z,11.32
2023-04-27T18:27:55.324Z,11.24
2023-04-27T18:30:23.490Z,11.26
2023-04-27T18:32:51.005Z,11.25
2023-04-27T18:35:18.614Z,11.19
2023-04-27T18:37:48.304Z,11.21
2023-04-27T18:40:17.168Z,11.21
2023-04-27T18:42:45.959Z,11.17
2023-04-27T18:45:13.513Z,11.16
2023-04-27T18:47:41.028Z,11.15
2023-04-27T18:50:09.532Z,11.09
2023-04-27T18:52:37.016Z,10.98
2023-04-27T18:55:05.362Z,10.94
2023-04-27T18:57:33.060Z,10.89
2023-04-27T19:00:01.969Z,10.90
2023-04-27T19:02:29.724Z,10.89
2023-04-27T19:05:11.134Z,10.86
2023-04-27T19:07:40.313Z,10.86
2023-04-27T19:10:08.934Z,10.82
2023-04-27T19:12:36.501Z,10.73
2023-04-27T19:15:06.181Z,10.61
2023-04-27T19:17:34.135Z,10.64
2023-04-27T19:20:01.768Z,10.65
2023-04-27T19:22:34.088Z,10.61
2023-04-27T19:25:01.792Z,10.54
2023-04-27T19:27:29.377Z,10.54
2023-04-27T19:29:58.638Z,10.47
2023-04-27T19:32:28.336Z,10.45
2023-04-27T19:34:56.819Z,10.40
2023-04-27T19:37:24.675Z,10.39
2023-04-27T19:39:52.200Z,10.39
2023-04-27T19:42:19.705Z,10.32
2023-04-27T19:44:47.297Z,10.30
2023-04-27T19:47:14.820Z,10.29
2023-04-27T19:49:43.662Z,10.25
2023-04-27T19:52:11.247Z,10.19
2023-04-27T19:54:38.937Z,10.15
2023-04-27T19:57:06.598Z,9.90
2023-04-27T19:59:34.180Z,9.76
2023-04-27T20:02:01.853Z,9.82
2023-04-27T20:04:29.760Z,9.84
2023-04-27T20:06:58.716Z,9.85
2023-04-27T20:09:26.306Z,9.90
2023-04-27T20:11:54.903Z,9.91
2023-04-27T20:14:22.431Z,9.79
2023-04-27T20:16:50.019Z,9.84
2023-04-27T20:19:19.269Z,9.82
2023-04-27T20:21:46.906Z,9.65
2023-04-27T20:24:16.313Z,9.74
2023-04-27T20:26:44.150Z,9.79
2023-04-27T20:29:11.696Z,9.76
2023-04-27T20:31:39.232Z,9.75
2023-04-27T20:34:06.738Z,9.69
2023-04-27T20:36:34.234Z,9.55
2023-04-27T20:39:05.383Z,9.58
2023-04-27T20:41:34.644Z,9.66
2023-04-27T20:44:02.314Z,9.64
2023-04-27T20:46:30.567Z,9.63
2023-04-27T20:48:58.089Z,9.64
2023-04-27T20:51:26.252Z,9.63
2023-04-27T20:53:53.769Z,9.60
2023-04-27T20:56:21.227Z,9.56
2023-04-27T20:58:50.044Z,9.52
2023-04-27T21:01:17.868Z,9.54
2023-04-27T21:03:45.952Z,9.54
2023-04-27T21:06:13.597Z,9.54
2023-04-27T21:08:41.818Z,9.52
2023-04-27T21:11:09.376Z,9.46
2023-04-27T21:13:37.087Z,9.45
2023-04-27T21:16:06.568Z,9.48
2023-04-27T21:18:34.106Z,9.45
2023-04-27T21:21:01.648Z,9.46
2023-04-27T21:23:29.267Z,9.44
2023-04-27T21:25:56.789Z,9.49
2023-04-27T21:28:24.258Z,9.45
2023-04-27T21:30:51.792Z,9.40
2023-04-27T21:33:20.590Z,9.24
2023-04-27T21:35:48.092Z,9.31
2023-04-27T21:38:15.640Z,9.29
2023-04-27T21:40:43.186Z,9.35
2023-04-27T21:43:10.673Z,9.25
2023-04-27T21:45:38.195Z,9.19
2023-04-27T21:48:06.166Z,9.10
2023-04-27T21:50:35.118Z,9.10
2023-04-27T21:53:02.576Z,9.13
2023-04-27T21:55:30.062Z,9.17
2023-04-27T21:57:57.578Z,8.95
2023-04-27T22:00:25.551Z,8.93
2023-04-27T22:02:53.213Z,8.79
2023-04-27T22:05:21.512Z,8.66
2023-04-27T22:07:51.430Z,8.75
2023-04-27T22:10:18.985Z,8.75
2023-04-27T22:12:46.888Z,8.66
2023-04-27T22:15:14.376Z,8.85
2023-04-27T22:17:41.886Z,8.79
2023-04-27T22:20:12.626Z,8.64
2023-04-27T22:22:40.137Z,8.57
2023-04-27T22:25:10.030Z,8.48
2023-04-27T22:27:44.839Z,8.29
2023-04-27T22:30:14.366Z,8.17
2023-04-27T22:32:42.363Z,8.22
2023-04-27T22:35:24.690Z,8.14
2023-04-27T22:37:53.645Z,8.18
2023-04-27T22:40:22.657Z,8.26
2023-04-27T22:42:50.139Z,8.08
2023-04-27T22:45:18.041Z,8.08
2023-04-27T22:47:46.006Z,8.07
2023-04-27T22:50:14.061Z,8.02
2023-04-27T22:52:43.038Z,8.07
2023-04-27T22:55:11.044Z,8.01
2023-04-27T22:57:40.115Z,7.97
2023-04-27T23:00:11.309Z,7.98
2023-04-27T23:02:39.531Z,7.89
2023-04-27T23:05:08.004Z,8.05
2023-04-27T23:07:36.013Z,8.10
2023-04-27T23:10:04.587Z,8.02
2023-04-27T23:12:32.557Z,7.93
2023-04-27T23:15:01.374Z,7.96
2023-04-27T23:17:31.181Z,7.76
2023-04-27T23:19:59.197Z,7.75
2023-04-27T23:22:27.462Z,7.74
2023-04-27T23:24:55.371Z,7.70
2023-04-27T23:27:24.618Z,7.73
2023-04-27T23:29:52.618Z,7.68
2023-04-27T23:32:21.698Z,7.62
2023-04-27T23:34:49.395Z,7.59
2023-04-27T23:37:17.173Z,7.47
2023-04-27T23:39:44.656Z,7.36
2023-04-27T23:42:12.150Z,7.49
2023-04-27T23:44:39.658Z,7.59
2023-04-27T23:47:07.283Z,7.73
2023-04-27T23:49:36.339Z,7.58
2023-04-27T23:52:03.819Z,7.69
2023-04-27T23:54:31.545Z,7.40
2023-04-27T23:56:59.045Z,7.29
2023-04-27T23:59:26.553Z,7.44
